createdAt,value
2022-10-22T15:32:58.314Z,15.05
2022-10-22T15:37:51.658Z,15.39
2022-10-22T15:41:19.512Z,15.35
2022-10-22T15:44:25.273Z,15.35
2022-10-22T15:47:29.646Z,14.70
2022-10-22T15:50:32.345Z,14.68
2022-10-22T15:53:34.662Z,14.66
2022-10-22T15:56:37.195Z,14.60
2022-10-22T15:59:39.518Z,14.52
2022-10-22T16:02:42.060Z,14.42
2022-10-22T16:05:54.552Z,14.36
2022-10-22T16:08:59.313Z,14.28
2022-10-22T16:12:02.014Z,14.11
2022-10-22T16:15:04.670Z,14.08
2022-10-22T16:18:07.350Z,14.06
2022-10-22T16:21:13.725Z,14.05
2022-10-22T16:24:16.726Z,13.87
2022-10-22T16:27:19.036Z,13.69
2022-10-22T16:30:21.623Z,13.62
2022-10-22T16:33:23.930Z,13.56
2022-10-22T16:36:26.613Z,13.67
2022-10-22T16:39:28.928Z,13.59
2022-10-22T16:42:31.439Z,13.43
2022-10-22T16:45:33.687Z,13.40
2022-10-22T16:48:40.411Z,13.39
2022-10-22T16:51:42.703Z,13.38
2022-10-22T16:54:46.766Z,13.38
2022-10-22T16:57:52.378Z,13.42
2022-10-22T17:00:54.955Z,13.47
2022-10-22T17:04:00.431Z,13.50
2022-10-22T17:07:02.974Z,13.47
2022-10-22T17:10:05.883Z,13.45
2022-10-22T17:13:08.479Z,13.46
2022-10-22T17:16:13.907Z,13.42
2022-10-22T17:19:16.550Z,13.47
2022-10-22T17:22:18.850Z,13.43
2022-10-22T17:25:47.616Z,13.32
2022-10-22T17:28:50.660Z,13.37
2022-10-22T17:31:53.244Z,13.40
2022-10-22T17:34:55.518Z,13.43
2022-10-22T17:37:58.058Z,13.49
2022-10-22T17:41:05.706Z,13.38
2022-10-22T17:44:12.306Z,13.39
2022-10-22T17:47:15.101Z,13.46
2022-10-22T17:50:18.919Z,13.24
2022-10-22T17:53:21.191Z,13.25
2022-10-22T17:56:29.827Z,13.32
2022-10-22T17:59:32.759Z,13.35
2022-10-22T18:02:35.324Z,13.40
2022-10-22T18:05:37.842Z,13.35
2022-10-22T18:08:40.426Z,13.30
2022-10-22T18:11:44.103Z,13.32
2022-10-22T18:14:47.118Z,13.32
2022-10-22T18:17:50.341Z,13.32
2022-10-22T18:20:53.374Z,13.37
2022-10-22T18:23:58.943Z,13.35
2022-10-22T18:27:01.214Z,13.36
2022-10-22T18:30:04.131Z,13.41
2022-10-22T18:33:07.214Z,13.32
2022-10-22T18:36:12.416Z,13.31
2022-10-22T18:39:15.501Z,13.31
2022-10-22T18:42:18.116Z,13.26
2022-10-22T18:45:20.372Z,13.18
2022-10-22T18:48:23.098Z,13.20
2022-10-22T18:51:30.886Z,13.22
2022-10-22T18:54:33.492Z,13.25
2022-10-22T18:57:35.851Z,13.23
2022-10-22T19:00:38.670Z,13.22
2022-10-22T19:03:41.415Z,13.22
2022-10-22T19:06:45.780Z,13.28
2022-10-22T19:09:48.460Z,13.24
2022-10-22T19:12:51.024Z,13.26
2022-10-22T19:15:53.265Z,13.28
2022-10-22T19:19:03.048Z,13.21
2022-10-22T19:22:05.324Z,13.11
2022-10-22T19:25:11.217Z,13.02
2022-10-22T19:28:14.394Z,12.96
2022-10-22T19:31:19.674Z,12.92
2022-10-22T19:34:22.066Z,12.85
2022-10-22T19:37:24.686Z,12.76
2022-10-22T19:40:28.390Z,12.68
2022-10-22T19:43:30.907Z,12.71
2022-10-22T19:46:33.212Z,12.67
2022-10-22T19:49:35.779Z,12.61
2022-10-22T19:52:38.053Z,12.58
2022-10-22T19:55:44.862Z,12.53
2022-10-22T19:58:47.368Z,12.51
2022-10-22T20:01:50.377Z,12.44
2022-10-22T20:04:52.915Z,12.39
2022-10-22T20:07:55.164Z,12.44
2022-10-22T20:10:58.041Z,12.41
2022-10-22T20:14:00.328Z,12.38
2022-10-22T20:17:03.005Z,12.32
2022-10-22T20:20:05.899Z,12.24
2022-10-22T20:23:08.723Z,12.29
2022-10-22T20:26:11.300Z,12.29
2022-10-22T20:29:15.452Z,12.26
2022-10-22T20:32:17.692Z,12.30
2022-10-22T20:35:20.173Z,12.28
2022-10-22T20:38:22.419Z,12.29
2022-10-22T20:41:24.899Z,12.30
2022-10-22T20:44:27.118Z,12.34
2022-10-22T20:47:39.309Z,12.39
2022-10-22T20:50:52.230Z,12.41
2022-10-22T20:53:54.767Z,12.41
2022-10-22T20:56:57.538Z,12.39
2022-10-22T21:00:00.032Z,12.37
2022-10-22T21:03:02.251Z,12.35
2022-10-22T21:06:05.736Z,12.31
2022-10-22T21:09:09.209Z,12.27
2022-10-22T21:12:11.860Z,12.22
2022-10-22T21:15:14.132Z,12.14
2022-10-22T21:18:16.597Z,12.02
2022-10-22T21:21:19.940Z,11.96
2022-10-22T21:24:24.805Z,11.96
2022-10-22T21:27:27.151Z,11.96
2022-10-22T21:30:29.682Z,11.97
2022-10-22T21:33:35.140Z,12.01
2022-10-22T21:36:37.964Z,12.03
2022-10-22T21:39:42.112Z,12.03
2022-10-22T21:42:44.845Z,12.00
2022-10-22T21:45:47.206Z,11.96
2022-10-22T21:49:03.611Z,12.03
2022-10-22T21:52:07.116Z,11.96
2022-10-22T21:55:09.739Z,12.03
2022-10-22T21:58:11.991Z,12.09
2022-10-22T22:01:15.255Z,12.19
2022-10-22T22:04:17.800Z,12.28
2022-10-22T22:07:20.216Z,12.31
2022-10-22T22:10:25.172Z,12.31
2022-10-22T22:13:27.378Z,12.29
2022-10-22T22:16:32.236Z,12.19
2022-10-22T22:19:34.551Z,12.07
2022-10-22T22:22:37.067Z,12.00
2022-10-22T22:25:39.326Z,11.86
2022-10-22T22:28:41.940Z,11.83
2022-10-22T22:31:45.897Z,11.80
2022-10-22T22:34:48.435Z,11.76
2022-10-22T22:37:50.722Z,11.69
2022-10-22T22:40:53.305Z,11.70
2022-10-22T22:47:02.984Z,11.73
2022-10-22T22:50:05.669Z,11.79
2022-10-22T22:53:08.142Z,11.87
2022-10-22T22:56:20.146Z,11.86
2022-10-22T22:59:22.726Z,11.94
2022-10-22T23:02:25.067Z,11.93
2022-10-22T23:05:27.617Z,11.94
2022-10-22T23:08:29.848Z,11.87
2022-10-22T23:11:32.501Z,11.88
2022-10-22T23:14:34.802Z,11.90
2022-10-22T23:17:37.373Z,11.85
2022-10-22T23:20:39.574Z,11.83
2022-10-22T23:23:46.559Z,11.83
2022-10-22T23:26:50.965Z,11.77
2022-10-22T23:29:53.439Z,11.77
2022-10-22T23:32:55.779Z,11.77
2022-10-22T23:36:01.613Z,11.78
2022-10-22T23:39:08.931Z,11.77
2022-10-22T23:42:11.642Z,11.73
2022-10-22T23:45:14.189Z,11.75
2022-10-22T23:48:16.863Z,11.70
2022-10-22T23:51:20.342Z,11.73
2022-10-22T23:54:22.941Z,11.75
2022-10-22T23:57:25.316Z,11.71
